Time;durP1;ratioP1;P1;durP2;ratioP2;P2;SDS_P1;SDS_P2;PMS_P1;PMS_P2;Temp;Humidity;BMP_temperature;BMP_pressure;BME280_temperature;BME280_humidity;BME280_pressure;Samples;Min_cycle;Max_cycle;Signal;HPM_P1;HPM_P2
2021/05/11 00:01:47;;;;;;;2.50;2.30;;;19.50;99.90;;;;;;5094683;28;20464;-69
2021/05/11 00:04:14;;;;;;;7.30;2.50;;;19.50;99.90;;;;;;5095437;28;20457;-66
2021/05/11 00:06:40;;;;;;;4.13;2.00;;;19.50;99.90;;;;;;5094758;28;20932;-67
2021/05/11 00:09:07;;;;;;;3.27;2.00;;;19.40;99.90;;;;;;5094683;28;20457;-66
2021/05/11 00:11:34;;;;;;;2.07;1.93;;;19.40;99.90;;;;;;5094828;28;20976;-67
2021/05/11 00:14:00;;;;;;;3.43;2.20;;;19.40;99.90;;;;;;5098546;28;20453;-67
2021/05/11 00:16:27;;;;;;;2.27;1.90;;;19.40;99.90;;;;;;5098327;28;20560;-67
2021/05/11 00:18:54;;;;;;;4.13;1.87;;;19.30;99.90;;;;;;5098172;28;20453;-67
2021/05/11 00:21:21;;;;;;;2.47;2.27;;;19.30;99.90;;;;;;5098240;28;20453;-68
2021/05/11 00:23:47;;;;;;;2.47;2.27;;;19.20;99.90;;;;;;5098282;28;20457;-67
2021/05/11 00:26:13;;;;;;;4.67;2.03;;;19.30;99.90;;;;;;5098418;28;20468;-67
2021/05/11 00:28:39;;;;;;;5.07;2.07;;;19.30;99.90;;;;;;5098568;28;20809;-68
2021/05/11 00:31:05;;;;;;;2.13;1.97;;;19.20;99.90;;;;;;5097638;28;20808;-67
2021/05/11 00:33:32;;;;;;;2.37;1.87;;;19.20;99.90;;;;;;5098049;28;20782;-67
2021/05/11 00:35:59;;;;;;;3.03;1.73;;;19.10;99.90;;;;;;5098074;28;20959;-67
2021/05/11 00:38:25;;;;;;;3.10;1.70;;;19.10;99.90;;;;;;5098032;28;20472;-67
2021/05/11 00:40:51;;;;;;;2.50;1.60;;;19.10;99.90;;;;;;5098142;28;20521;-67
2021/05/11 00:43:17;;;;;;;2.07;1.60;;;19.00;99.90;;;;;;5097970;28;20454;-67
2021/05/11 00:45:43;;;;;;;2.40;1.50;;;19.00;99.90;;;;;;5099044;28;20473;-67
2021/05/11 00:48:13;;;;;;;1.87;1.53;;;19.00;99.90;;;;;;5098167;28;20457;-67
2021/05/11 00:50:40;;;;;;;3.33;1.70;;;19.00;99.90;;;;;;5097795;28;20461;-67
2021/05/11 00:53:06;;;;;;;2.20;1.67;;;18.90;99.90;;;;;;5097729;28;20488;-67
2021/05/11 00:55:33;;;;;;;2.20;1.83;;;18.90;99.90;;;;;;5097502;28;20818;-67
2021/05/11 00:58:00;;;;;;;2.93;2.00;;;18.90;99.90;;;;;;5097666;28;20990;-67
2021/05/11 01:00:27;;;;;;;2.30;2.00;;;18.90;99.90;;;;;;5097574;28;20496;-66
2021/05/11 01:02:53;;;;;;;3.00;2.13;;;18.90;99.90;;;;;;5097825;28;20456;-67
2021/05/11 01:05:19;;;;;;;3.00;1.93;;;18.90;1.00;;;;;;5097810;28;20898;-68
2021/05/11 01:07:49;;;;;;;3.20;2.17;;;18.90;1.00;;;;;;5097253;28;20468;-66
2021/05/11 01:10:15;;;;;;;4.53;1.87;;;18.90;1.00;;;;;;5097401;28;20457;-67
2021/05/11 01:12:41;;;;;;;3.00;2.07;;;18.90;1.00;;;;;;5097259;28;20550;-67
2021/05/11 01:15:09;;;;;;;2.10;1.90;;;18.80;1.00;;;;;;5097004;28;20453;-67
2021/05/11 01:17:37;;;;;;;2.87;1.97;;;18.70;1.00;;;;;;5096720;28;20453;-67
2021/05/11 01:20:06;;;;;;;3.57;2.10;;;18.70;1.00;;;;;;5097523;28;20971;-67
2021/05/11 01:22:52;;;;;;;3.40;2.50;;;18.70;1.00;;;;;;5096644;28;20521;-67
2021/05/11 01:25:20;;;;;;;3.87;2.07;;;18.70;1.00;;;;;;5096599;28;20510;-67
2021/05/11 01:27:58;;;;;;;3.70;2.00;;;18.70;1.00;;;;;;5096915;28;20462;-67
2021/05/11 01:31:07;;;;;;;4.33;2.53;;;18.60;96.50;;;;;;5096880;28;20494;-67
2021/05/11 01:47:49;;;;;;;2.77;2.43;;;18.40;1.00;;;;;;5076199;28;20438;-67
2021/05/11 01:50:20;;;;;;;2.70;2.50;;;18.40;1.00;;;;;;5096498;28;20761;-67
2021/05/11 01:53:07;;;;;;;4.60;2.63;;;18.30;1.00;;;;;;5096517;28;20462;-67
2021/05/11 01:58:49;;;;;;;2.40;2.20;;;18.30;1.00;;;;;;5075789;28;20519;-67
2021/05/11 02:23:12;;;;;;;3.87;2.80;;;18.20;92.40;;;;;;5102767;28;20412;-68
2021/05/11 02:25:38;;;;;;;3.80;3.50;;;18.10;99.90;;;;;;5101293;28;20449;-68
2021/05/11 02:28:06;;;;;;;3.13;2.57;;;18.10;85.20;;;;;;5100391;28;20465;-67
2021/05/11 02:30:32;;;;;;;3.17;2.60;;;18.10;62.50;;;;;;5104085;28;20481;-68
2021/05/11 02:32:58;;;;;;;5.93;2.80;;;18.10;99.90;;;;;;5102975;28;20469;-67
2021/05/11 02:35:24;;;;;;;2.73;2.53;;;18.10;99.90;;;;;;5100485;28;20510;-67
2021/05/11 02:37:53;;;;;;;2.97;2.57;;;18.00;99.90;;;;;;5097143;28;20901;-67
2021/05/11 02:40:21;;;;;;;3.33;2.43;;;18.10;99.90;;;;;;5098742;28;20453;-68
2021/05/11 02:42:51;;;;;;;3.33;2.60;;;18.00;99.90;;;;;;5098346;28;20460;-67
2021/05/11 02:45:18;;;;;;;5.50;2.83;;;18.00;99.90;;;;;;5096214;28;20458;-67
2021/05/11 02:47:48;;;;;;;5.50;2.80;;;18.10;99.90;;;;;;5095819;28;21035;-68
2021/05/11 02:50:15;;;;;;;4.03;2.50;;;18.10;99.90;;;;;;5095808;28;20540;-67
2021/05/11 02:52:41;;;;;;;2.50;2.27;;;18.10;99.90;;;;;;5095484;28;20488;-66
2021/05/11 02:55:10;;;;;;;2.67;2.50;;;18.10;99.90;;;;;;5095619;28;20453;-67
2021/05/11 02:57:37;;;;;;;4.67;2.60;;;18.00;99.90;;;;;;5095688;28;20457;-67
2021/05/11 03:00:05;;;;;;;2.83;2.60;;;18.00;99.90;;;;;;5095180;28;20457;-67
2021/05/11 03:02:33;;;;;;;4.77;2.97;;;18.00;99.90;;;;;;5095325;28;20535;-67
2021/05/11 03:04:59;;;;;;;3.07;2.77;;;17.90;99.90;;;;;;5095271;28;20468;-68
2021/05/11 03:07:25;;;;;;;2.93;2.67;;;17.90;99.90;;;;;;5095473;28;20487;-68
2021/05/11 03:09:52;;;;;;;3.73;2.90;;;17.90;99.90;;;;;;5095398;28;20468;-67
2021/05/11 03:12:18;;;;;;;3.80;3.10;;;17.90;99.90;;;;;;5095035;28;20484;-66
2021/05/11 03:14:44;;;;;;;2.63;2.43;;;17.80;1.00;;;;;;5095328;28;20472;-66
2021/05/11 03:17:11;;;;;;;3.50;3.20;;;17.80;1.00;;;;;;5094950;28;20472;-67
2021/05/11 03:19:38;;;;;;;4.70;2.77;;;17.80;1.00;;;;;;5095309;28;20909;-66
2021/05/11 03:22:04;;;;;;;12.40;3.03;;;17.80;1.00;;;;;;5094752;28;20465;-66
2021/05/11 03:24:31;;;;;;;3.10;2.90;;;17.80;1.00;;;;;;5095130;28;20457;-66
2021/05/11 03:26:57;;;;;;;3.93;3.37;;;17.80;1.00;;;;;;5094883;28;20913;-68
2021/05/11 03:29:23;;;;;;;5.90;4.00;;;17.80;1.00;;;;;;5095052;28;20453;-66
2021/05/11 03:31:49;;;;;;;8.33;3.60;;;17.80;1.00;;;;;;5094622;28;20539;-67
2021/05/11 03:34:16;;;;;;;5.40;2.60;;;17.80;1.00;;;;;;5095047;28;20453;-67
2021/05/11 03:36:43;;;;;;;3.20;2.97;;;17.80;1.00;;;;;;5094858;28;20468;-66
2021/05/11 03:39:09;;;;;;;3.40;3.10;;;17.80;1.00;;;;;;5094882;28;20457;-67
2021/05/11 03:41:39;;;;;;;4.70;3.30;;;17.80;1.00;;;;;;5095062;28;20472;-68
2021/05/11 03:44:09;;;;;;;5.93;3.60;;;17.70;1.00;;;;;;5094807;28;20448;-68
2021/05/11 03:46:36;;;;;;;6.37;3.53;;;17.70;1.00;;;;;;5095551;28;20460;-68
2021/05/11 03:49:03;;;;;;;4.53;3.47;;;17.70;1.00;;;;;;5098977;28;20775;-68
2021/05/11 03:51:30;;;;;;;8.40;3.53;;;17.70;1.00;;;;;;5098772;28;20514;-65
2021/05/11 03:53:57;;;;;;;3.90;3.10;;;17.70;1.00;;;;;;5098852;28;20494;-67
2021/05/11 03:56:24;;;;;;;6.43;3.80;;;17.60;1.00;;;;;;5098803;28;20453;-66
2021/05/11 03:58:50;;;;;;;5.03;3.60;;;17.60;1.00;;;;;;5098904;28;20475;-66
2021/05/11 04:01:16;;;;;;;5.13;3.30;;;17.50;1.00;;;;;;5098970;28;20464;-66
2021/05/11 04:03:42;;;;;;;3.63;3.33;;;17.50;99.90;;;;;;5098885;28;20445;-67
2021/05/11 04:06:09;;;;;;;4.00;3.67;;;17.50;99.90;;;;;;5098117;28;20461;-67
2021/05/11 04:08:42;;;;;;;4.83;3.57;;;17.50;99.90;;;;;;5098784;28;20461;-68
2021/05/11 04:11:26;;;;;;;4.53;3.70;;;17.50;99.90;;;;;;5098626;28;20441;-66
2021/05/11 04:16:41;;;;;;;4.10;3.70;;;17.40;1.00;;;;;;5089274;28;20449;-67
2021/05/11 04:19:07;;;;;;;4.40;4.00;;;17.40;1.00;;;;;;5098455;28;20453;-67
2021/05/11 04:21:33;;;;;;;6.20;3.83;;;17.50;1.00;;;;;;5098311;28;20468;-67
2021/05/11 04:24:00;;;;;;;7.37;4.13;;;17.50;1.00;;;;;;5098454;28;20457;-68
2021/05/11 04:26:27;;;;;;;5.30;3.87;;;17.50;99.90;;;;;;5098401;28;20543;-68
2021/05/11 04:28:53;;;;;;;5.67;4.20;;;17.60;1.00;;;;;;5097925;28;20510;-67
2021/05/11 04:31:20;;;;;;;4.90;4.50;;;17.70;1.00;;;;;;5099392;28;20489;-67
2021/05/11 04:33:47;;;;;;;5.03;4.63;;;17.80;1.00;;;;;;5097856;28;20477;-68
2021/05/11 04:36:14;;;;;;;5.93;3.60;;;17.90;1.00;;;;;;5098157;28;20458;-68
2021/05/11 04:38:40;;;;;;;6.57;4.80;;;18.00;1.00;;;;;;5098472;28;20480;-68
2021/05/11 04:41:07;;;;;;;7.40;4.83;;;18.10;1.00;;;;;;5098568;28;20507;-67
2021/05/11 04:43:35;;;;;;;5.47;4.10;;;18.20;1.00;;;;;;5097860;28;20453;-68
2021/05/11 04:46:08;;;;;;;5.70;4.20;;;18.30;40.80;;;;;;5098545;28;20453;-67
2021/05/11 04:48:37;;;;;;;4.70;4.20;;;18.40;99.90;;;;;;5098066;28;20536;-67
2021/05/11 04:51:04;;;;;;;11.60;4.40;;;18.50;1.00;;;;;;5098056;28;20468;-67
2021/05/11 04:53:33;;;;;;;5.60;4.73;;;18.50;99.90;;;;;;5097936;28;20550;-67
2021/05/11 04:56:00;;;;;;;4.60;4.03;;;18.60;1.00;;;;;;5097960;28;20503;-67
2021/05/11 04:58:26;;;;;;;5.33;4.83;;;18.60;99.90;;;;;;5097384;28;20824;-66
2021/05/11 05:01:00;;;;;;;5.00;4.37;;;18.70;1.00;;;;;;5098443;28;20495;-66
2021/05/11 05:03:27;;;;;;;8.33;4.40;;;18.70;99.90;;;;;;5098750;28;20437;-67
2021/05/11 05:05:53;;;;;;;6.40;5.17;;;18.80;1.00;;;;;;5098183;28;20454;-67
2021/05/11 05:08:20;;;;;;;6.03;4.87;;;18.80;99.90;;;;;;5098097;28;20709;-67
2021/05/11 05:10:46;;;;;;;6.20;4.60;;;18.90;99.90;;;;;;5098169;28;20461;-68
2021/05/11 05:13:18;;;;;;;6.93;5.10;;;18.90;1.00;;;;;;5097668;28;20477;-67
2021/05/11 05:15:44;;;;;;;6.07;3.90;;;18.90;99.90;;;;;;5097915;28;20445;-68
2021/05/11 05:18:11;;;;;;;5.40;4.90;;;19.00;1.00;;;;;;5098108;28;20468;-67
2021/05/11 05:20:38;;;;;;;8.27;4.70;;;19.00;99.90;;;;;;5097830;28;20468;-67
2021/05/11 05:23:04;;;;;;;5.33;4.83;;;19.00;99.90;;;;;;5097921;28;20929;-67
2021/05/11 05:25:30;;;;;;;5.20;4.70;;;19.00;99.90;;;;;;5098110;28;20491;-71
2021/05/11 05:27:59;;;;;;;7.47;4.63;;;19.10;99.90;;;;;;5098217;28;20544;-67
2021/05/11 05:30:25;;;;;;;5.67;5.00;;;19.10;99.90;;;;;;5097672;28;20499;-66
2021/05/11 05:32:53;;;;;;;9.00;4.20;;;19.20;99.90;;;;;;5098083;28;20861;-67
2021/05/11 05:35:20;;;;;;;4.63;4.23;;;19.30;99.90;;;;;;5097689;28;20457;-67
2021/05/11 05:37:47;;;;;;;7.07;4.60;;;19.50;99.90;;;;;;5097730;28;20464;-67
2021/05/11 05:40:18;;;;;;;7.97;4.83;;;19.60;90.90;;;;;;5097135;28;20494;-67
2021/05/11 05:42:48;;;;;;;5.43;4.90;;;19.70;1.00;;;;;;5097345;28;20437;-67
2021/05/11 05:45:15;;;;;;;8.90;5.00;;;19.90;1.00;;;;;;5097275;28;20450;-67
2021/05/11 05:47:50;;;;;;;4.60;4.20;;;20.00;1.00;;;;;;5097623;28;20457;-67
2021/05/11 05:50:18;;;;;;;8.80;4.93;;;20.10;1.00;;;;;;5097818;28;20532;-67
2021/05/11 05:52:45;;;;;;;9.60;4.97;;;20.10;1.00;;;;;;5097756;28;20477;-68
2021/05/11 05:55:12;;;;;;;5.63;4.73;;;20.20;1.00;;;;;;5097296;28;20544;-67
2021/05/11 05:57:38;;;;;;;5.50;4.83;;;20.30;1.00;;;;;;5096768;28;20472;-67
2021/05/11 06:00:06;;;;;;;6.03;5.43;;;20.30;1.00;;;;;;5096354;28;20454;-68
2021/05/11 06:02:32;;;;;;;5.70;5.03;;;20.40;1.00;;;;;;5096693;28;20450;-68
2021/05/11 06:04:58;;;;;;;8.57;5.83;;;20.50;1.00;;;;;;5096757;28;20453;-69
2021/05/11 06:07:25;;;;;;;5.47;4.97;;;20.50;99.90;;;;;;5096698;28;20453;-69
2021/05/11 06:09:53;;;;;;;9.13;4.50;;;20.60;99.90;;;;;;5095943;28;20453;-69
2021/05/11 06:12:23;;;;;;;6.50;4.33;;;20.60;99.90;;;;;;5096843;28;20734;-69
2021/05/11 06:15:03;;;;;;;12.57;10.83;;;20.70;99.90;;;;;;5097274;28;20468;-69
2021/05/11 06:17:29;;;;;;;6.17;5.53;;;20.70;99.90;;;;;;5096997;28;20442;-68
2021/05/11 06:19:55;;;;;;;7.53;5.03;;;20.80;99.90;;;;;;5099526;28;20454;-68
2021/05/11 06:22:22;;;;;;;6.73;4.77;;;20.90;99.90;;;;;;5099469;28;20203;-70
2021/05/11 06:24:48;;;;;;;7.13;4.53;;;21.00;99.90;;;;;;5096916;28;20453;-69
2021/05/11 06:27:19;;;;;;;5.60;5.07;;;21.20;99.90;;;;;;5096289;28;20453;-69
2021/05/11 06:29:46;;;;;;;7.17;4.40;;;21.20;99.90;;;;;;5096285;28;20437;-68
2021/05/11 06:32:17;;;;;;;4.97;4.23;;;21.40;99.90;;;;;;5095971;28;20486;-68
2021/05/11 06:34:48;;;;;;;6.30;4.83;;;21.50;99.90;;;;;;5096078;28;20882;-69
2021/05/11 06:37:14;;;;;;;5.10;4.33;;;21.50;99.90;;;;;;5096181;28;20449;-68
2021/05/11 06:39:45;;;;;;;8.33;4.43;;;21.60;99.90;;;;;;5096084;28;20472;-69
2021/05/11 06:42:12;;;;;;;7.17;4.40;;;21.80;99.90;;;;;;5095613;28;20483;-70
2021/05/11 06:44:51;;;;;;;6.03;4.60;;;21.90;99.90;;;;;;5096070;28;20457;-69
2021/05/11 06:47:27;;;;;;;5.30;4.80;;;22.00;99.90;;;;;;5095732;28;20756;-69
2021/05/11 06:50:13;;;;;;;5.37;3.83;;;22.10;99.90;;;;;;5095256;28;20444;-68
2021/05/11 06:52:53;;;;;;;6.17;4.13;;;22.20;99.90;;;;;;5095552;28;20461;-68
2021/05/11 06:55:20;;;;;;;6.50;3.50;;;22.40;99.90;;;;;;5095633;28;20477;-69
2021/05/11 06:57:47;;;;;;;6.10;4.40;;;22.60;99.90;;;;;;5095627;28;20457;-68
2021/05/11 07:00:15;;;;;;;6.53;4.80;;;22.70;99.90;;;;;;5095291;28;20513;-69
2021/05/11 07:02:41;;;;;;;6.10;4.47;;;22.90;99.90;;;;;;5095103;28;20457;-68
2021/05/11 07:05:08;;;;;;;7.23;4.10;;;23.00;99.90;;;;;;5095523;28;20468;-69
2021/05/11 07:07:39;;;;;;;6.30;4.67;;;23.00;99.90;;;;;;5095584;28;20746;-70
2021/05/11 07:10:13;;;;;;;7.33;4.47;;;23.10;89.30;;;;;;5095230;28;20457;-69
2021/05/11 07:15:28;;;;;;;6.53;3.63;;;23.20;61.20;;;;;;5095880;28;20457;-69
2021/05/11 07:18:10;;;;;;;4.57;4.17;;;23.20;55.20;;;;;;5096003;28;20449;-68
2021/05/11 07:20:37;;;;;;;5.50;4.20;;;23.10;50.40;;;;;;5095103;28;20437;-69
2021/05/11 07:23:03;;;;;;;4.60;4.03;;;23.10;51.10;;;;;;5095113;28;20445;-70
2021/05/11 07:25:33;;;;;;;4.37;3.97;;;23.10;45.60;;;;;;5095413;28;20820;-69
2021/05/11 07:30:51;;;;;;;4.50;4.10;;;23.10;37.20;;;;;;5082076;28;20484;-69
2021/05/11 07:33:18;;;;;;;5.20;3.83;;;23.20;34.30;;;;;;5095398;28;20536;-69
2021/05/11 07:35:45;;;;;;;6.13;3.80;;;23.20;33.80;;;;;;5095185;28;20468;-69
2021/05/11 07:38:11;;;;;;;4.93;3.90;;;23.10;34.70;;;;;;5095178;28;20538;-68
2021/05/11 07:40:37;;;;;;;8.07;3.87;;;23.20;32.00;;;;;;5094512;28;20509;-69
2021/05/11 07:43:03;;;;;;;5.40;4.37;;;23.20;25.70;;;;;;5095008;28;20518;-69
2021/05/11 07:45:35;;;;;;;5.43;4.30;;;23.20;24.50;;;;;;5094870;28;20453;-70
2021/05/11 08:02:21;;;;;;;3.63;3.33;;;22.90;1.00;;;;;;5094903;28;20440;-67
2021/05/11 08:04:58;;;;;;;5.97;3.90;;;22.90;4.30;;;;;;5094695;28;20831;-67
2021/05/11 08:10:24;;;;;;;7.10;4.43;;;23.20;1.00;;;;;;5094913;28;20433;-67
2021/05/11 08:15:36;;;;;;;4.57;3.90;;;23.20;1.00;;;;;;5094491;28;20885;-67
2021/05/11 08:18:12;;;;;;;5.07;4.00;;;23.20;1.00;;;;;;5094580;28;20512;-68
2021/05/11 08:23:35;;;;;;;4.90;4.40;;;23.50;1.00;;;;;;5094876;28;20505;-69
2021/05/11 08:28:46;;;;;;;6.40;5.33;;;24.10;1.00;;;;;;5095691;28;20443;-68
2021/05/11 08:31:13;;;;;;;3.83;3.53;;;24.40;1.00;;;;;;5094792;28;20477;-67
2021/05/11 08:33:39;;;;;;;8.30;5.10;;;24.60;1.00;;;;;;5096540;28;20623;-67
2021/05/11 08:36:07;;;;;;;5.00;4.13;;;24.80;1.00;;;;;;5097979;28;20450;-67
2021/05/11 08:38:36;;;;;;;5.70;4.13;;;24.80;1.00;;;;;;5098583;28;20457;-67
2021/05/11 08:41:03;;;;;;;4.03;3.67;;;25.00;1.00;;;;;;5097898;28;20457;-67
2021/05/11 08:43:31;;;;;;;4.37;3.97;;;25.20;1.00;;;;;;5097875;28;20453;-67
2021/05/11 08:46:00;;;;;;;7.97;3.30;;;25.40;1.00;;;;;;5098020;28;20468;-67
2021/05/11 08:48:30;;;;;;;5.07;3.40;;;25.70;1.00;;;;;;5097992;28;20506;-68
2021/05/11 08:51:02;;;;;;;4.10;3.57;;;26.00;1.00;;;;;;5098075;28;20746;-67
2021/05/11 09:04:38;;;;;;;6.57;3.60;;;26.90;1.00;;;;;;5097857;28;20421;-67
2021/05/11 09:24:45;;;;;;;4.30;3.90;;;27.30;1.00;;;;;;5097457;28;20509;-68
2021/05/11 09:27:20;;;;;;;4.70;3.40;;;27.10;1.00;;;;;;5097073;28;20437;-66
2021/05/11 09:30:03;;;;;;;5.20;3.43;;;27.00;1.00;;;;;;5096847;28;20540;-67
2021/05/11 09:51:16;;;;;;;4.30;3.50;;;26.80;1.00;;;;;;5034261;28;20440;-67
2021/05/11 09:59:36;;;;;;;4.83;3.70;;;27.00;1.00;;;;;;5093160;28;20452;-67
2021/05/11 10:10:53;;;;;;;4.80;4.30;;;26.50;1.00;;;;;;5099643;28;20451;-68
2021/05/11 10:48:40;;;;;;;4.80;4.40;;;28.00;1.00;;;;;;5095712;28;20463;-68
2021/05/11 10:51:16;;;;;;;4.27;3.87;;;28.10;1.00;;;;;;5096107;28;20533;-68
2021/05/11 10:53:51;;;;;;;7.30;3.70;;;28.10;1.00;;;;;;5096219;28;20821;-71
2021/05/11 10:57:00;;;;;;;6.17;4.13;;;28.10;1.00;;;;;;5095707;28;20437;-67
2021/05/11 10:59:43;;;;;;;5.53;3.83;;;28.20;1.00;;;;;;5096000;28;20449;-67
2021/05/11 11:02:25;;;;;;;5.57;4.27;;;28.20;1.00;;;;;;5095707;28;20476;-67
2021/05/11 11:04:52;;;;;;;6.60;4.17;;;28.30;1.00;;;;;;5095131;28;20532;-66
2021/05/11 11:07:30;;;;;;;4.30;4.00;;;28.40;1.00;;;;;;5095886;28;20449;-67
2021/05/11 11:09:59;;;;;;;9.27;4.23;;;28.50;1.00;;;;;;5095414;28;20437;-67
2021/05/11 11:12:34;;;;;;;7.63;4.13;;;28.70;1.00;;;;;;5095753;28;20481;-67
2021/05/11 11:15:03;;;;;;;4.80;4.33;;;28.70;1.00;;;;;;5095696;28;20453;-67
2021/05/11 11:17:30;;;;;;;5.47;4.03;;;28.90;1.00;;;;;;5096241;28;20460;-67
2021/05/11 11:20:01;;;;;;;4.67;4.27;;;29.40;1.00;;;;;;5096916;28;20484;-67
2021/05/11 11:25:15;;;;;;;5.63;3.53;;;31.20;1.00;;;;;;5095951;28;20433;-67
2021/05/11 11:27:42;;;;;;;3.93;3.63;;;32.30;99.90;;;;;;5096359;28;20485;-66
2021/05/11 11:30:11;;;;;;;5.80;3.63;;;33.40;1.00;;;;;;5095804;28;20556;-67
2021/05/11 11:32:37;;;;;;;4.40;2.97;;;34.20;99.90;;;;;;5095507;28;20492;-67
2021/05/11 11:35:06;;;;;;;4.20;3.30;;;35.10;1.00;;;;;;5096058;28;20465;-67
2021/05/11 11:37:33;;;;;;;8.70;4.37;;;35.90;28.60;;;;;;5096815;28;20809;-66
2021/05/11 11:40:01;;;;;;;6.60;3.87;;;36.30;86.80;;;;;;5097786;28;20462;-66
2021/05/11 11:42:33;;;;;;;5.17;4.47;;;36.40;84.10;;;;;;5097905;28;20453;-66
2021/05/11 11:44:59;;;;;;;5.83;4.17;;;36.30;81.20;;;;;;5098637;28;20438;-66
2021/05/11 11:47:27;;;;;;;7.63;4.17;;;35.90;79.20;;;;;;5097491;28;20518;-66
2021/05/11 11:49:59;;;;;;;5.47;4.60;;;35.60;78.70;;;;;;5098144;28;20449;-66
2021/05/11 11:52:30;;;;;;;7.90;4.03;;;35.50;77.50;;;;;;5098270;28;20469;-66
2021/05/11 11:55:16;;;;;;;7.20;4.37;;;35.60;78.60;;;;;;5099432;28;20841;-67
2021/05/11 11:57:46;;;;;;;4.90;3.50;;;35.80;76.70;;;;;;5100707;28;20531;-67
2021/05/11 12:00:14;;;;;;;4.80;4.40;;;35.90;74.90;;;;;;5100549;28;20453;-67
2021/05/11 12:02:52;;;;;;;5.13;4.13;;;35.40;73.10;;;;;;5100582;28;20449;-67
2021/05/11 12:05:19;;;;;;;8.93;4.47;;;35.20;74.40;;;;;;5101719;28;20441;-67
2021/05/11 12:07:58;;;;;;;4.63;3.93;;;35.20;74.00;;;;;;5103464;28;20522;-67
2021/05/11 12:10:26;;;;;;;7.60;3.80;;;35.20;73.50;;;;;;5104749;28;20477;-67
2021/05/11 12:12:53;;;;;;;4.37;3.97;;;35.30;71.60;;;;;;5105000;28;20893;-68
2021/05/11 12:15:21;;;;;;;5.57;4.60;;;35.60;72.00;;;;;;5103467;28;20936;-67
2021/05/11 12:17:48;;;;;;;8.70;3.80;;;36.00;71.20;;;;;;5105050;28;20557;-67
2021/05/11 12:20:24;;;;;;;5.00;4.50;;;36.50;70.40;;;;;;5104013;28;20497;-66
2021/05/11 12:23:05;;;;;;;4.50;3.80;;;36.90;66.00;;;;;;5102856;28;20465;-66
2021/05/11 12:25:33;;;;;;;4.30;3.70;;;37.30;64.30;;;;;;5101182;28;20524;-67
2021/05/11 12:28:02;;;;;;;6.53;4.00;;;37.90;63.10;;;;;;5103067;28;20518;-67
2021/05/11 12:30:40;;;;;;;6.87;3.80;;;38.50;61.40;;;;;;5101807;28;20461;-67
2021/05/11 12:33:10;;;;;;;3.60;3.30;;;38.10;58.10;;;;;;5101583;28;20522;-67
2021/05/11 12:35:39;;;;;;;6.57;3.97;;;37.90;58.30;;;;;;5103859;28;20500;-66
2021/05/11 12:38:18;;;;;;;4.53;3.67;;;37.90;58.40;;;;;;5103569;28;20957;-68
2021/05/11 12:40:52;;;;;;;3.60;3.30;;;38.20;57.90;;;;;;5104908;28;20530;-69
2021/05/11 12:43:43;;;;;;;7.13;3.70;;;38.50;56.50;;;;;;5105406;28;20629;-69
2021/05/11 12:46:19;;;;;;;4.93;3.30;;;38.60;55.50;;;;;;5103768;28;20545;-68
2021/05/11 12:48:57;;;;;;;4.27;3.87;;;38.60;55.70;;;;;;5103551;28;20786;-69
2021/05/11 12:51:32;;;;;;;8.30;3.30;;;39.00;55.40;;;;;;5103635;28;20905;-68
2021/05/11 12:54:01;;;;;;;3.70;3.40;;;39.40;53.50;;;;;;5106237;28;20483;-68
2021/05/11 12:56:36;;;;;;;5.20;3.37;;;39.60;52.30;;;;;;5104543;28;20457;-68
2021/05/11 12:59:10;;;;;;;4.87;3.50;;;39.20;50.70;;;;;;5101818;28;20516;-68
2021/05/11 13:26:42;;;;;;;8.20;3.07;;;39.20;46.90;;;;;;5098240;28;20529;-68
2021/05/11 13:29:20;;;;;;;4.00;3.17;;;38.90;48.50;;;;;;5101542;28;20774;-68
2021/05/11 13:31:51;;;;;;;7.13;3.90;;;38.00;48.10;;;;;;5104232;28;20526;-68
2021/05/11 13:34:20;;;;;;;7.53;3.33;;;37.90;48.50;;;;;;5099188;28;20542;-69
2021/05/11 13:36:46;;;;;;;4.93;3.67;;;38.20;49.10;;;;;;5097587;28;20457;-67
2021/05/11 13:39:15;;;;;;;4.63;3.57;;;38.40;48.10;;;;;;5097158;28;20468;-68
2021/05/11 13:41:42;;;;;;;5.43;3.40;;;38.50;49.00;;;;;;5097648;28;20457;-68
2021/05/11 13:44:12;;;;;;;4.80;3.47;;;38.80;48.80;;;;;;5097296;28;20937;-68
2021/05/11 13:46:40;;;;;;;5.50;3.33;;;39.30;47.40;;;;;;5098157;28;20449;-67
2021/05/11 13:49:15;;;;;;;4.00;3.60;;;39.30;47.20;;;;;;5101343;28;20454;-69
2021/05/11 13:51:41;;;;;;;3.50;3.20;;;39.00;47.90;;;;;;5105545;28;20463;-68
2021/05/11 13:54:14;;;;;;;5.03;3.40;;;38.90;47.80;;;;;;5105071;28;20515;-68
2021/05/11 13:56:49;;;;;;;6.13;3.63;;;38.20;47.50;;;;;;5104641;28;20438;-68
2021/05/11 14:02:36;;;;;;;10.83;4.07;;;37.50;49.00;;;;;;5077710;28;20530;-67
2021/05/11 14:05:03;;;;;;;3.37;3.07;;;37.90;49.50;;;;;;5077236;28;20499;-68
2021/05/11 14:07:29;;;;;;;4.03;3.63;;;38.20;48.00;;;;;;5089284;28;20476;-68
2021/05/11 14:09:55;;;;;;;3.40;3.10;;;38.30;47.80;;;;;;5097378;28;20457;-68
2021/05/11 14:12:21;;;;;;;5.87;3.23;;;38.50;48.40;;;;;;5098082;28;20449;-68
2021/05/11 14:14:51;;;;;;;7.73;3.10;;;38.80;48.20;;;;;;5098317;28;20468;-68
2021/05/11 14:17:18;;;;;;;4.30;3.90;;;39.00;47.00;;;;;;5097193;28;20457;-68
2021/05/11 14:19:47;;;;;;;4.20;3.00;;;39.10;47.10;;;;;;5097919;28;20453;-68
2021/05/11 14:22:13;;;;;;;3.43;3.13;;;39.30;47.20;;;;;;5097338;28;20457;-68
2021/05/11 14:24:42;;;;;;;7.23;3.43;;;39.20;46.70;;;;;;5097233;28;20476;-67
2021/05/11 14:27:11;;;;;;;4.17;3.60;;;39.00;46.20;;;;;;5096091;28;20461;-68
2021/05/11 14:29:39;;;;;;;7.00;3.30;;;38.90;46.20;;;;;;5097106;28;20453;-68
2021/05/11 14:32:12;;;;;;;4.30;3.23;;;38.60;46.50;;;;;;5095729;28;20582;-67
2021/05/11 14:34:40;;;;;;;3.43;3.00;;;38.70;47.00;;;;;;5095704;28;20461;-68
2021/05/11 14:37:06;;;;;;;4.73;3.50;;;39.00;47.70;;;;;;5096334;28;20457;-68
2021/05/11 14:39:32;;;;;;;6.13;3.70;;;39.40;46.10;;;;;;5096587;28;20763;-68
2021/05/11 14:42:01;;;;;;;3.47;3.17;;;39.60;46.60;;;;;;5097664;28;20457;-68
2021/05/11 14:44:28;;;;;;;3.70;3.40;;;39.70;45.90;;;;;;5096002;28;20454;-68
2021/05/11 14:46:56;;;;;;;5.20;3.67;;;39.60;45.50;;;;;;5096001;28;20460;-68
2021/05/11 14:49:23;;;;;;;5.43;3.70;;;39.40;46.20;;;;;;5096626;28;20449;-68
2021/05/11 14:51:49;;;;;;;6.63;4.07;;;38.80;46.10;;;;;;5095881;28;20461;-67
2021/05/11 14:54:18;;;;;;;6.03;3.90;;;37.70;46.60;;;;;;5097869;28;20477;-68
2021/05/11 14:56:44;;;;;;;4.10;3.70;;;37.40;47.50;;;;;;5097557;28;20457;-68
2021/05/11 14:59:11;;;;;;;4.43;4.03;;;36.60;48.10;;;;;;5096278;28;20457;-69
2021/05/11 15:01:38;;;;;;;5.47;4.30;;;36.80;48.70;;;;;;5096004;28;20510;-67
2021/05/11 15:04:05;;;;;;;3.57;3.27;;;37.30;48.30;;;;;;5097108;28;20453;-66
2021/05/11 15:06:33;;;;;;;4.93;3.50;;;37.70;47.80;;;;;;5100481;28;20453;-67
2021/05/11 15:09:00;;;;;;;4.80;3.57;;;38.00;47.70;;;;;;5097546;28;20511;-67
2021/05/11 15:11:26;;;;;;;4.13;3.70;;;38.10;47.30;;;;;;5097108;28;20476;-67
2021/05/11 15:13:55;;;;;;;11.10;4.20;;;38.20;48.20;;;;;;5097817;28;20477;-66
2021/05/11 15:16:23;;;;;;;4.83;4.33;;;38.00;50.20;;;;;;5096739;28;20968;-66
2021/05/11 15:18:49;;;;;;;5.40;4.40;;;37.80;51.30;;;;;;5096766;28;20496;-68
2021/05/11 15:21:16;;;;;;;5.23;4.73;;;37.30;51.90;;;;;;5097727;28;20521;-67
2021/05/11 15:23:44;;;;;;;6.80;4.60;;;36.50;52.90;;;;;;5097219;28;20481;-66
2021/05/11 15:26:12;;;;;;;5.63;4.50;;;35.50;54.30;;;;;;5097579;28;20472;-67
2021/05/11 15:28:39;;;;;;;5.10;4.37;;;34.60;56.10;;;;;;5097804;28;20461;-67
2021/05/11 15:31:06;;;;;;;4.97;4.57;;;33.90;57.40;;;;;;5098423;28;20538;-67
2021/05/11 15:33:32;;;;;;;5.47;5.00;;;33.30;58.50;;;;;;5096743;28;20477;-67
2021/05/11 15:35:59;;;;;;;7.93;5.30;;;32.90;59.80;;;;;;5095913;28;20479;-67
2021/05/11 15:38:30;;;;;;;5.43;4.97;;;32.00;61.60;;;;;;5095964;28;20469;-67
2021/05/11 15:40:58;;;;;;;5.37;4.83;;;31.70;63.40;;;;;;5096073;28;20946;-67
2021/05/11 15:43:25;;;;;;;6.10;5.50;;;31.30;64.50;;;;;;5097492;28;20457;-67
2021/05/11 15:45:52;;;;;;;10.97;5.60;;;30.60;67.10;;;;;;5099411;28;20901;-67
2021/05/11 15:48:18;;;;;;;5.63;5.10;;;30.20;69.40;;;;;;5099336;28;20453;-66
2021/05/11 15:50:46;;;;;;;6.53;4.73;;;30.00;71.60;;;;;;5099735;28;20483;-67
2021/05/11 15:53:15;;;;;;;8.83;5.40;;;29.90;72.80;;;;;;5099485;28;20571;-67
2021/05/11 15:55:42;;;;;;;6.57;5.17;;;29.80;73.50;;;;;;5098504;28;20769;-68
2021/05/11 15:58:12;;;;;;;8.43;5.50;;;29.60;74.60;;;;;;5098765;28;20454;-67
2021/05/11 16:00:40;;;;;;;5.60;5.10;;;29.40;76.90;;;;;;5098424;28;20511;-67
2021/05/11 16:03:11;;;;;;;7.10;5.77;;;29.30;78.00;;;;;;5098529;28;20464;-68
2021/05/11 16:05:39;;;;;;;6.00;5.23;;;29.20;79.10;;;;;;5098869;28;20445;-67
2021/05/11 16:08:06;;;;;;;5.40;4.90;;;29.10;80.00;;;;;;5098947;28;20544;-67
2021/05/11 16:10:33;;;;;;;10.53;5.20;;;29.20;80.80;;;;;;5098730;28;20537;-67
2021/05/11 16:12:59;;;;;;;5.80;5.40;;;29.20;80.90;;;;;;5098411;28;20973;-67
2021/05/11 16:15:30;;;;;;;6.13;4.70;;;29.00;81.30;;;;;;5098989;28;20495;-67
2021/05/11 16:18:00;;;;;;;6.03;5.53;;;28.90;82.70;;;;;;5099610;28;20866;-66
2021/05/11 16:20:27;;;;;;;6.00;5.50;;;28.70;83.80;;;;;;5098904;28;20449;-66
2021/05/11 16:22:54;;;;;;;7.63;5.60;;;28.50;85.30;;;;;;5098450;28;20453;-67